sensor_id;sensor_type;location;lat;lon;timestamp;temperature;humidity
47226;DHT22;32965;64.142;-21.912;2022-07-29T00:00:34;9.30;99.90
47226;DHT22;32965;64.142;-21.912;2022-07-29T00:05:29;9.30;99.90
47226;DHT22;32965;64.142;-21.912;2022-07-29T00:12:54;9.30;99.90
47226;DHT22;32965;64.142;-21.912;2022-07-29T00:17:46;9.30;99.90
47226;DHT22;32965;64.142;-21.912;2022-07-29T00:20:12;9.40;99.90
47226;DHT22;32965;64.142;-21.912;2022-07-29T00:22:38;9.40;99.90
47226;DHT22;32965;64.142;-21.912;2022-07-29T00:25:36;9.40;99.90
47226;DHT22;32965;64.142;-21.912;2022-07-29T00:30:38;9.40;99.90
47226;DHT22;32965;64.142;-21.912;2022-07-29T00:33:04;9.40;99.90
47226;DHT22;32965;64.142;-21.912;2022-07-29T00:42:54;9.20;99.90
47226;DHT22;32965;64.142;-21.912;2022-07-29T00:45:28;9.20;99.90
47226;DHT22;32965;64.142;-21.912;2022-07-29T00:48:21;9.20;99.90
47226;DHT22;32965;64.142;-21.912;2022-07-29T00:53:15;9.10;99.90
47226;DHT22;32965;64.142;-21.912;2022-07-29T00:58:08;9.10;99.90
47226;DHT22;32965;64.142;-21.912;2022-07-29T01:00:35;9.00;99.90
47226;DHT22;32965;64.142;-21.912;2022-07-29T01:03:02;9.00;99.90
47226;DHT22;32965;64.142;-21.912;2022-07-29T01:05:30;9.10;99.90
47226;DHT22;32965;64.142;-21.912;2022-07-29T01:07:58;9.00;99.90
47226;DHT22;32965;64.142;-21.912;2022-07-29T01:10:31;9.00;99.90
47226;DHT22;32965;64.142;-21.912;2022-07-29T01:12:59;9.00;99.90
47226;DHT22;32965;64.142;-21.912;2022-07-29T01:15:34;9.00;99.90
47226;DHT22;32965;64.142;-21.912;2022-07-29T01:18:24;9.00;99.90
47226;DHT22;32965;64.142;-21.912;2022-07-29T01:25:02;9.00;99.90
47226;DHT22;32965;64.142;-21.912;2022-07-29T01:30:16;9.10;99.90
47226;DHT22;32965;64.142;-21.912;2022-07-29T01:32:47;9.10;99.90
47226;DHT22;32965;64.142;-21.912;2022-07-29T01:35:28;9.10;99.90
47226;DHT22;32965;64.142;-21.912;2022-07-29T01:38:10;9.10;99.90
47226;DHT22;32965;64.142;-21.912;2022-07-29T01:40:45;9.10;99.90
47226;DHT22;32965;64.142;-21.912;2022-07-29T01:43:21;9.10;99.90
47226;DHT22;32965;64.142;-21.912;2022-07-29T01:45:56;9.20;99.90
47226;DHT22;32965;64.142;-21.912;2022-07-29T01:48:56;9.20;99.90
47226;DHT22;32965;64.142;-21.912;2022-07-29T01:51:40;9.20;99.90
47226;DHT22;32965;64.142;-21.912;2022-07-29T01:54:29;9.40;99.90
47226;DHT22;32965;64.142;-21.912;2022-07-29T01:56:58;9.40;99.90
47226;DHT22;32965;64.142;-21.912;2022-07-29T01:59:25;9.40;99.90
47226;DHT22;32965;64.142;-21.912;2022-07-29T02:01:55;9.40;99.90
47226;DHT22;32965;64.142;-21.912;2022-07-29T02:04:23;9.50;99.90
47226;DHT22;32965;64.142;-21.912;2022-07-29T02:06:51;9.50;99.90
47226;DHT22;32965;64.142;-21.912;2022-07-29T02:09:19;9.50;99.90
47226;DHT22;32965;64.142;-21.912;2022-07-29T02:14:23;9.70;99.90
47226;DHT22;32965;64.142;-21.912;2022-07-29T02:17:10;9.60;99.90
47226;DHT22;32965;64.142;-21.912;2022-07-29T02:19:38;9.70;99.90
47226;DHT22;32965;64.142;-21.912;2022-07-29T02:22:06;9.70;99.90
47226;DHT22;32965;64.142;-21.912;2022-07-29T02:24:34;9.70;99.90
47226;DHT22;32965;64.142;-21.912;2022-07-29T02:27:03;9.70;99.90
47226;DHT22;32965;64.142;-21.912;2022-07-29T02:29:30;9.70;99.90
47226;DHT22;32965;64.142;-21.912;2022-07-29T02:31:58;9.60;99.90
47226;DHT22;32965;64.142;-21.912;2022-07-29T02:34:25;9.60;99.90
47226;DHT22;32965;64.142;-21.912;2022-07-29T02:36:54;9.60;99.90
47226;DHT22;32965;64.142;-21.912;2022-07-29T02:39:21;9.60;99.90
47226;DHT22;32965;64.142;-21.912;2022-07-29T02:42:21;9.50;99.90
47226;DHT22;32965;64.142;-21.912;2022-07-29T02:44:47;9.50;99.90
47226;DHT22;32965;64.142;-21.912;2022-07-29T02:47:38;9.40;99.90
47226;DHT22;32965;64.142;-21.912;2022-07-29T02:50:38;9.40;99.90
47226;DHT22;32965;64.142;-21.912;2022-07-29T02:53:21;9.20;99.90
47226;DHT22;32965;64.142;-21.912;2022-07-29T02:56:12;9.10;99.90
47226;DHT22;32965;64.142;-21.912;2022-07-29T02:58:41;9.10;99.90
47226;DHT22;32965;64.142;-21.912;2022-07-29T03:01:11;9.20;99.90
47226;DHT22;32965;64.142;-21.912;2022-07-29T03:03:39;9.20;99.90
47226;DHT22;32965;64.142;-21.912;2022-07-29T03:06:07;9.20;99.90
47226;DHT22;32965;64.142;-21.912;2022-07-29T03:08:35;9.20;99.90
47226;DHT22;32965;64.142;-21.912;2022-07-29T03:11:02;9.20;99.90
47226;DHT22;32965;64.142;-21.912;2022-07-29T03:13:29;9.20;99.90
47226;DHT22;32965;64.142;-21.912;2022-07-29T03:15:57;9.20;99.90
47226;DHT22;32965;64.142;-21.912;2022-07-29T03:18:25;9.20;99.90
47226;DHT22;32965;64.142;-21.912;2022-07-29T03:20:52;9.20;99.90
47226;DHT22;32965;64.142;-21.912;2022-07-29T03:23:23;9.10;99.90
47226;DHT22;32965;64.142;-21.912;2022-07-29T03:25:53;9.20;99.90
47226;DHT22;32965;64.142;-21.912;2022-07-29T03:28:19;9.20;99.90
47226;DHT22;32965;64.142;-21.912;2022-07-29T03:30:46;9.20;99.90
47226;DHT22;32965;64.142;-21.912;2022-07-29T03:33:14;9.20;99.90
47226;DHT22;32965;64.142;-21.912;2022-07-29T03:35:40;9.20;99.90
47226;DHT22;32965;64.142;-21.912;2022-07-29T03:38:06;9.20;99.90
47226;DHT22;32965;64.142;-21.912;2022-07-29T03:41:01;9.30;99.90
47226;DHT22;32965;64.142;-21.912;2022-07-29T03:43:47;9.30;99.90
47226;DHT22;32965;64.142;-21.912;2022-07-29T03:46:22;9.20;99.90
47226;DHT22;32965;64.142;-21.912;2022-07-29T03:48:56;9.20;99.90
47226;DHT22;32965;64.142;-21.912;2022-07-29T03:53:50;9.10;99.90
47226;DHT22;32965;64.142;-21.912;2022-07-29T03:56:16;9.00;99.90
47226;DHT22;32965;64.142;-21.912;2022-07-29T03:58:42;9.00;99.90
47226;DHT22;32965;64.142;-21.912;2022-07-29T04:01:13;9.00;99.90
47226;DHT22;32965;64.142;-21.912;2022-07-29T04:03:39;9.00;99.90
47226;DHT22;32965;64.142;-21.912;2022-07-29T04:06:06;9.00;99.90
47226;DHT22;32965;64.142;-21.912;2022-07-29T04:08:35;9.00;99.90
47226;DHT22;32965;64.142;-21.912;2022-07-29T04:11:01;9.10;99.90
47226;DHT22;32965;64.142;-21.912;2022-07-29T04:13:28;9.10;99.90
47226;DHT22;32965;64.142;-21.912;2022-07-29T04:15:54;9.10;99.90
47226;DHT22;32965;64.142;-21.912;2022-07-29T04:18:19;9.10;99.90
47226;DHT22;32965;64.142;-21.912;2022-07-29T04:20:45;9.10;99.90
47226;DHT22;32965;64.142;-21.912;2022-07-29T04:23:12;9.20;99.90
47226;DHT22;32965;64.142;-21.912;2022-07-29T04:25:39;9.20;99.90
47226;DHT22;32965;64.142;-21.912;2022-07-29T04:28:05;9.30;99.90
47226;DHT22;32965;64.142;-21.912;2022-07-29T04:30:32;9.40;99.90
47226;DHT22;32965;64.142;-21.912;2022-07-29T04:33:00;9.50;99.90
47226;DHT22;32965;64.142;-21.912;2022-07-29T04:37:51;9.50;99.90
47226;DHT22;32965;64.142;-21.912;2022-07-29T04:40:17;9.50;99.90
47226;DHT22;32965;64.142;-21.912;2022-07-29T04:42:43;9.50;99.90
47226;DHT22;32965;64.142;-21.912;2022-07-29T04:45:09;9.60;99.90
47226;DHT22;32965;64.142;-21.912;2022-07-29T04:47:35;9.60;99.90
47226;DHT22;32965;64.142;-21.912;2022-07-29T04:50:00;9.40;99.90
47226;DHT22;32965;64.142;-21.912;2022-07-29T04:52:28;9.50;99.90
47226;DHT22;32965;64.142;-21.912;2022-07-29T04:54:53;9.40;99.90
47226;DHT22;32965;64.142;-21.912;2022-07-29T04:57:19;9.30;99.90
47226;DHT22;32965;64.142;-21.912;2022-07-29T04:59:45;9.30;99.90
47226;DHT22;32965;64.142;-21.912;2022-07-29T05:02:10;9.40;99.90
47226;DHT22;32965;64.142;-21.912;2022-07-29T05:04:36;9.40;99.90
47226;DHT22;32965;64.142;-21.912;2022-07-29T05:07:03;9.50;99.90
47226;DHT22;32965;64.142;-21.912;2022-07-29T05:09:29;9.50;99.90
47226;DHT22;32965;64.142;-21.912;2022-07-29T05:11:54;9.60;99.90
47226;DHT22;32965;64.142;-21.912;2022-07-29T05:14:23;9.60;99.90
47226;DHT22;32965;64.142;-21.912;2022-07-29T05:16:49;9.60;99.90
47226;DHT22;32965;64.142;-21.912;2022-07-29T05:19:17;9.60;99.90
47226;DHT22;32965;64.142;-21.912;2022-07-29T05:21:44;9.60;99.90
47226;DHT22;32965;64.142;-21.912;2022-07-29T05:24:10;9.50;99.90
47226;DHT22;32965;64.142;-21.912;2022-07-29T05:29:02;9.40;99.90
47226;DHT22;32965;64.142;-21.912;2022-07-29T05:33:55;9.30;99.90
47226;DHT22;32965;64.142;-21.912;2022-07-29T05:36:21;9.40;99.90
47226;DHT22;32965;64.142;-21.912;2022-07-29T05:38:46;9.40;99.90
47226;DHT22;32965;64.142;-21.912;2022-07-29T05:41:12;9.40;99.90
47226;DHT22;32965;64.142;-21.912;2022-07-29T05:43:38;9.40;99.90
47226;DHT22;32965;64.142;-21.912;2022-07-29T05:46:04;9.40;99.90
47226;DHT22;32965;64.142;-21.912;2022-07-29T05:48:30;9.40;99.90
47226;DHT22;32965;64.142;-21.912;2022-07-29T05:50:56;9.40;99.90
47226;DHT22;32965;64.142;-21.912;2022-07-29T05:53:22;9.40;99.90
47226;DHT22;32965;64.142;-21.912;2022-07-29T05:55:50;9.40;99.90
47226;DHT22;32965;64.142;-21.912;2022-07-29T05:58:16;9.50;99.90
47226;DHT22;32965;64.142;-21.912;2022-07-29T06:00:48;9.50;99.90
47226;DHT22;32965;64.142;-21.912;2022-07-29T06:03:14;9.50;99.90
47226;DHT22;32965;64.142;-21.912;2022-07-29T06:05:39;9.50;99.90
47226;DHT22;32965;64.142;-21.912;2022-07-29T06:08:14;9.60;99.90
47226;DHT22;32965;64.142;-21.912;2022-07-29T06:10:40;9.60;99.90
47226;DHT22;32965;64.142;-21.912;2022-07-29T06:13:15;9.60;99.90
47226;DHT22;32965;64.142;-21.912;2022-07-29T06:15:50;9.60;99.90
47226;DHT22;32965;64.142;-21.912;2022-07-29T06:18:17;9.60;99.90
47226;DHT22;32965;64.142;-21.912;2022-07-29T06:20:46;9.70;99.90
47226;DHT22;32965;64.142;-21.912;2022-07-29T06:23:12;9.70;99.90
47226;DHT22;32965;64.142;-21.912;2022-07-29T06:25:40;9.70;99.90
47226;DHT22;32965;64.142;-21.912;2022-07-29T06:28:06;9.70;99.90
47226;DHT22;32965;64.142;-21.912;2022-07-29T06:30:32;9.80;99.90
47226;DHT22;32965;64.142;-21.912;2022-07-29T06:32:58;9.80;99.90
47226;DHT22;32965;64.142;-21.912;2022-07-29T06:35:23;9.70;99.90
47226;DHT22;32965;64.142;-21.912;2022-07-29T06:37:58;9.70;99.90
47226;DHT22;32965;64.142;-21.912;2022-07-29T06:40:26;9.80;99.90
47226;DHT22;32965;64.142;-21.912;2022-07-29T06:43:22;9.70;99.90
47226;DHT22;32965;64.142;-21.912;2022-07-29T06:45:48;9.70;99.90
47226;DHT22;32965;64.142;-21.912;2022-07-29T06:48:19;9.80;99.90
47226;DHT22;32965;64.142;-21.912;2022-07-29T06:50:48;9.80;99.90
47226;DHT22;32965;64.142;-21.912;2022-07-29T06:53:14;9.80;99.90
47226;DHT22;32965;64.142;-21.912;2022-07-29T06:55:44;9.70;99.90
47226;DHT22;32965;64.142;-21.912;2022-07-29T06:58:10;9.80;99.90
47226;DHT22;32965;64.142;-21.912;2022-07-29T07:00:37;9.90;99.90
47226;DHT22;32965;64.142;-21.912;2022-07-29T07:03:33;9.90;99.90
47226;DHT22;32965;64.142;-21.912;2022-07-29T07:10:51;10.20;99.90
47226;DHT22;32965;64.142;-21.912;2022-07-29T07:13:17;10.20;99.90
47226;DHT22;32965;64.142;-21.912;2022-07-29T07:15:44;10.30;99.90
47226;DHT22;32965;64.142;-21.912;2022-07-29T07:18:10;10.50;99.90
47226;DHT22;32965;64.142;-21.912;2022-07-29T07:20:37;10.50;99.90
47226;DHT22;32965;64.142;-21.912;2022-07-29T07:23:06;10.50;99.90
47226;DHT22;32965;64.142;-21.912;2022-07-29T07:25:32;10.50;99.90
47226;DHT22;32965;64.142;-21.912;2022-07-29T07:28:03;10.50;99.90
47226;DHT22;32965;64.142;-21.912;2022-07-29T07:30:32;10.60;99.90
47226;DHT22;32965;64.142;-21.912;2022-07-29T07:32:59;10.60;99.90
47226;DHT22;32965;64.142;-21.912;2022-07-29T07:35:25;10.70;99.90
47226;DHT22;32965;64.142;-21.912;2022-07-29T07:38:16;10.90;99.90
47226;DHT22;32965;64.142;-21.912;2022-07-29T07:40:43;10.90;99.90
47226;DHT22;32965;64.142;-21.912;2022-07-29T07:43:14;11.00;99.90
47226;DHT22;32965;64.142;-21.912;2022-07-29T07:45:40;11.00;99.90
47226;DHT22;32965;64.142;-21.912;2022-07-29T07:48:11;11.00;99.90
47226;DHT22;32965;64.142;-21.912;2022-07-29T07:50:38;11.00;99.90
47226;DHT22;32965;64.142;-21.912;2022-07-29T07:53:05;11.10;99.90
47226;DHT22;32965;64.142;-21.912;2022-07-29T07:55:31;11.10;99.90
47226;DHT22;32965;64.142;-21.912;2022-07-29T07:58:03;11.10;99.90
47226;DHT22;32965;64.142;-21.912;2022-07-29T08:03:15;11.10;99.90
47226;DHT22;32965;64.142;-21.912;2022-07-29T08:05:44;11.20;99.90
47226;DHT22;32965;64.142;-21.912;2022-07-29T08:08:17;11.20;99.90
47226;DHT22;32965;64.142;-21.912;2022-07-29T08:10:48;11.50;99.90
47226;DHT22;32965;64.142;-21.912;2022-07-29T08:13:26;11.50;99.90
47226;DHT22;32965;64.142;-21.912;2022-07-29T08:15:56;12.40;99.90
47226;DHT22;32965;64.142;-21.912;2022-07-29T08:18:43;13.20;99.90
47226;DHT22;32965;64.142;-21.912;2022-07-29T08:21:10;13.50;98.70
47226;DHT22;32965;64.142;-21.912;2022-07-29T08:23:38;13.50;97.80
47226;DHT22;32965;64.142;-21.912;2022-07-29T08:26:11;13.40;96.90
47226;DHT22;32965;64.142;-21.912;2022-07-29T08:28:38;13.40;97.00
47226;DHT22;32965;64.142;-21.912;2022-07-29T08:31:06;13.70;96.80
47226;DHT22;32965;64.142;-21.912;2022-07-29T08:33:33;14.30;95.90
47226;DHT22;32965;64.142;-21.912;2022-07-29T08:38:25;15.80;92.50
47226;DHT22;32965;64.142;-21.912;2022-07-29T08:40:57;16.40;90.10
47226;DHT22;32965;64.142;-21.912;2022-07-29T08:43:23;14.80;85.70
47226;DHT22;32965;64.142;-21.912;2022-07-29T08:45:50;16.70;87.70
47226;DHT22;32965;64.142;-21.912;2022-07-29T08:48:19;16.50;86.20
47226;DHT22;32965;64.142;-21.912;2022-07-29T08:50:47;16.20;84.20
47226;DHT22;32965;64.142;-21.912;2022-07-29T08:53:32;15.80;84.50
47226;DHT22;32965;64.142;-21.912;2022-07-29T08:56:19;14.50;87.80
47226;DHT22;32965;64.142;-21.912;2022-07-29T08:58:48;14.50;87.70
47226;DHT22;32965;64.142;-21.912;2022-07-29T09:01:17;14.10;89.90
47226;DHT22;32965;64.142;-21.912;2022-07-29T09:04:05;13.40;91.20
47226;DHT22;32965;64.142;-21.912;2022-07-29T09:07:03;13.30;91.90
47226;DHT22;32965;64.142;-21.912;2022-07-29T09:09:48;13.30;92.00
47226;DHT22;32965;64.142;-21.912;2022-07-29T09:15:06;12.90;92.60
47226;DHT22;32965;64.142;-21.912;2022-07-29T09:18:03;12.80;92.70
47226;DHT22;32965;64.142;-21.912;2022-07-29T09:23:18;12.60;92.90
47226;DHT22;32965;64.142;-21.912;2022-07-29T09:25:53;12.60;93.10
47226;DHT22;32965;64.142;-21.912;2022-07-29T09:31:42;12.30;93.20
47226;DHT22;32965;64.142;-21.912;2022-07-29T09:34:47;12.20;93.60
47226;DHT22;32965;64.142;-21.912;2022-07-29T09:37:28;12.40;93.60
47226;DHT22;32965;64.142;-21.912;2022-07-29T09:42:29;12.30;93.30
47226;DHT22;32965;64.142;-21.912;2022-07-29T09:45:00;12.20;93.80
47226;DHT22;32965;64.142;-21.912;2022-07-29T09:47:59;12.20;94.00
47226;DHT22;32965;64.142;-21.912;2022-07-29T09:50:43;12.10;93.70
47226;DHT22;32965;64.142;-21.912;2022-07-29T09:53:10;12.20;93.80
47226;DHT22;32965;64.142;-21.912;2022-07-29T09:55:54;12.10;93.60
47226;DHT22;32965;64.142;-21.912;2022-07-29T10:00:53;11.90;93.60
47226;DHT22;32965;64.142;-21.912;2022-07-29T10:03:32;11.80;94.10
47226;DHT22;32965;64.142;-21.912;2022-07-29T10:07:17;11.90;93.80
47226;DHT22;32965;64.142;-21.912;2022-07-29T10:10:01;11.80;93.60
47226;DHT22;32965;64.142;-21.912;2022-07-29T10:12:28;11.90;93.50
47226;DHT22;32965;64.142;-21.912;2022-07-29T10:14:57;11.70;93.60
47226;DHT22;32965;64.142;-21.912;2022-07-29T10:17:42;11.80;93.50
47226;DHT22;32965;64.142;-21.912;2022-07-29T10:22:36;11.90;93.30
47226;DHT22;32965;64.142;-21.912;2022-07-29T10:32:51;12.40;92.40
47226;DHT22;32965;64.142;-21.912;2022-07-29T10:44:06;12.80;90.90
47226;DHT22;32965;64.142;-21.912;2022-07-29T10:46:52;12.60;91.30
47226;DHT22;32965;64.142;-21.912;2022-07-29T10:49:35;12.50;91.40
47226;DHT22;32965;64.142;-21.912;2022-07-29T10:52:12;12.50;91.40
47226;DHT22;32965;64.142;-21.912;2022-07-29T10:55:01;12.70;91.00
47226;DHT22;32965;64.142;-21.912;2022-07-29T11:08:26;12.50;91.00
47226;DHT22;32965;64.142;-21.912;2022-07-29T11:11:32;12.60;90.30
47226;DHT22;32965;64.142;-21.912;2022-07-29T11:17:02;12.40;91.00
47226;DHT22;32965;64.142;-21.912;2022-07-29T11:19:51;12.40;90.80
47226;DHT22;32965;64.142;-21.912;2022-07-29T11:22:57;12.30;90.70
47226;DHT22;32965;64.142;-21.912;2022-07-29T11:25:29;12.40;88.60
47226;DHT22;32965;64.142;-21.912;2022-07-29T11:28:16;12.40;88.60
47226;DHT22;32965;64.142;-21.912;2022-07-29T11:31:01;12.40;89.10
47226;DHT22;32965;64.142;-21.912;2022-07-29T11:33:39;12.30;90.00
47226;DHT22;32965;64.142;-21.912;2022-07-29T11:36:16;12.30;90.00
47226;DHT22;32965;64.142;-21.912;2022-07-29T11:39:28;12.30;90.40
47226;DHT22;32965;64.142;-21.912;2022-07-29T11:45:03;12.10;90.10
47226;DHT22;32965;64.142;-21.912;2022-07-29T11:47:51;12.20;90.00
47226;DHT22;32965;64.142;-21.912;2022-07-29T11:50:35;12.10;90.00
47226;DHT22;32965;64.142;-21.912;2022-07-29T11:53:12;12.10;90.20
47226;DHT22;32965;64.142;-21.912;2022-07-29T11:55:40;11.90;90.50
47226;DHT22;32965;64.142;-21.912;2022-07-29T11:58:06;12.00;90.50
47226;DHT22;32965;64.142;-21.912;2022-07-29T12:00:45;12.10;90.20
47226;DHT22;32965;64.142;-21.912;2022-07-29T12:03:26;12.10;90.20
47226;DHT22;32965;64.142;-21.912;2022-07-29T12:05:52;12.10;90.50
47226;DHT22;32965;64.142;-21.912;2022-07-29T12:08:22;12.10;89.50
47226;DHT22;32965;64.142;-21.912;2022-07-29T12:13:49;12.30;85.40
47226;DHT22;32965;64.142;-21.912;2022-07-29T12:16:21;12.30;85.80
47226;DHT22;32965;64.142;-21.912;2022-07-29T12:19:04;12.40;84.90
47226;DHT22;32965;64.142;-21.912;2022-07-29T12:21:56;12.30;83.90
47226;DHT22;32965;64.142;-21.912;2022-07-29T12:32:10;12.40;83.40
47226;DHT22;32965;64.142;-21.912;2022-07-29T12:35:11;12.50;83.50
47226;DHT22;32965;64.142;-21.912;2022-07-29T12:37:45;12.60;84.00
47226;DHT22;32965;64.142;-21.912;2022-07-29T12:40:16;12.60;82.60
47226;DHT22;32965;64.142;-21.912;2022-07-29T12:43:11;12.60;82.90
47226;DHT22;32965;64.142;-21.912;2022-07-29T12:46:38;12.70;82.40
47226;DHT22;32965;64.142;-21.912;2022-07-29T12:49:40;12.60;82.40
47226;DHT22;32965;64.142;-21.912;2022-07-29T13:01:35;13.00;81.70
47226;DHT22;32965;64.142;-21.912;2022-07-29T13:17:07;12.90;80.80
47226;DHT22;32965;64.142;-21.912;2022-07-29T13:20:15;12.90;80.90
47226;DHT22;32965;64.142;-21.912;2022-07-29T13:26:43;12.90;82.00
47226;DHT22;32965;64.142;-21.912;2022-07-29T13:29:47;12.90;81.20
47226;DHT22;32965;64.142;-21.912;2022-07-29T13:32:22;12.90;81.20
47226;DHT22;32965;64.142;-21.912;2022-07-29T13:36:10;12.90;81.50
47226;DHT22;32965;64.142;-21.912;2022-07-29T13:41:42;12.90;80.20
47226;DHT22;32965;64.142;-21.912;2022-07-29T13:44:35;12.90;79.30
47226;DHT22;32965;64.142;-21.912;2022-07-29T13:47:03;12.90;80.10
47226;DHT22;32965;64.142;-21.912;2022-07-29T13:49:29;12.90;80.30
47226;DHT22;32965;64.142;-21.912;2022-07-29T13:54:23;13.10;80.50
47226;DHT22;32965;64.142;-21.912;2022-07-29T13:56:50;13.10;81.20
47226;DHT22;32965;64.142;-21.912;2022-07-29T13:59:16;13.20;80.90
47226;DHT22;32965;64.142;-21.912;2022-07-29T14:04:13;13.20;79.00
47226;DHT22;32965;64.142;-21.912;2022-07-29T14:06:39;13.20;79.40
47226;DHT22;32965;64.142;-21.912;2022-07-29T14:09:08;13.10;79.50
47226;DHT22;32965;64.142;-21.912;2022-07-29T14:11:36;13.20;79.90
47226;DHT22;32965;64.142;-21.912;2022-07-29T14:14:04;13.10;79.30
47226;DHT22;32965;64.142;-21.912;2022-07-29T14:16:32;13.10;80.00
47226;DHT22;32965;64.142;-21.912;2022-07-29T14:21:24;13.30;81.20
47226;DHT22;32965;64.142;-21.912;2022-07-29T14:23:54;13.40;78.70
47226;DHT22;32965;64.142;-21.912;2022-07-29T14:28:45;13.70;76.40
47226;DHT22;32965;64.142;-21.912;2022-07-29T14:31:11;13.60;76.60
47226;DHT22;32965;64.142;-21.912;2022-07-29T14:33:37;13.60;78.10
47226;DHT22;32965;64.142;-21.912;2022-07-29T14:36:03;13.60;79.20
47226;DHT22;32965;64.142;-21.912;2022-07-29T14:38:29;13.50;77.70
47226;DHT22;32965;64.142;-21.912;2022-07-29T14:40:55;13.40;78.50
47226;DHT22;32965;64.142;-21.912;2022-07-29T14:43:25;13.40;78.70
47226;DHT22;32965;64.142;-21.912;2022-07-29T14:45:51;13.40;79.00
47226;DHT22;32965;64.142;-21.912;2022-07-29T14:48:19;13.40;80.00
47226;DHT22;32965;64.142;-21.912;2022-07-29T14:50:45;13.40;78.80
47226;DHT22;32965;64.142;-21.912;2022-07-29T14:53:11;13.40;79.80
47226;DHT22;32965;64.142;-21.912;2022-07-29T14:58:08;14.80;80.40
47226;DHT22;32965;64.142;-21.912;2022-07-29T15:03:03;13.50;80.50
47226;DHT22;32965;64.142;-21.912;2022-07-29T15:05:30;13.60;80.00
47226;DHT22;32965;64.142;-21.912;2022-07-29T15:07:57;13.60;81.10
47226;DHT22;32965;64.142;-21.912;2022-07-29T15:10:24;13.70;80.40
47226;DHT22;32965;64.142;-21.912;2022-07-29T15:12:55;13.70;80.50
47226;DHT22;32965;64.142;-21.912;2022-07-29T15:15:23;13.80;80.70
47226;DHT22;32965;64.142;-21.912;2022-07-29T15:17:49;13.80;81.50
47226;DHT22;32965;64.142;-21.912;2022-07-29T15:20:15;14.00;79.20
47226;DHT22;32965;64.142;-21.912;2022-07-29T15:22:44;14.10;77.70
47226;DHT22;32965;64.142;-21.912;2022-07-29T15:25:10;14.30;77.90
47226;DHT22;32965;64.142;-21.912;2022-07-29T15:27:36;14.20;77.90
47226;DHT22;32965;64.142;-21.912;2022-07-29T15:34:55;14.00;77.00
47226;DHT22;32965;64.142;-21.912;2022-07-29T15:37:21;13.80;77.60
47226;DHT22;32965;64.142;-21.912;2022-07-29T15:42:13;13.70;78.10
47226;DHT22;32965;64.142;-21.912;2022-07-29T15:44:39;13.50;80.20
47226;DHT22;32965;64.142;-21.912;2022-07-29T15:49:53;13.50;81.00
47226;DHT22;32965;64.142;-21.912;2022-07-29T15:52:21;13.40;80.80
47226;DHT22;32965;64.142;-21.912;2022-07-29T15:54:59;13.40;80.70
47226;DHT22;32965;64.142;-21.912;2022-07-29T15:57:26;13.30;81.20
47226;DHT22;32965;64.142;-21.912;2022-07-29T16:05:15;13.40;79.40
47226;DHT22;32965;64.142;-21.912;2022-07-29T16:08:04;13.40;80.80
47226;DHT22;32965;64.142;-21.912;2022-07-29T16:13:05;13.40;81.20
47226;DHT22;32965;64.142;-21.912;2022-07-29T16:15:33;13.40;81.00
47226;DHT22;32965;64.142;-21.912;2022-07-29T16:17:59;13.30;81.40
47226;DHT22;32965;64.142;-21.912;2022-07-29T16:20:28;13.30;81.40
47226;DHT22;32965;64.142;-21.912;2022-07-29T16:22:56;13.30;81.00
47226;DHT22;32965;64.142;-21.912;2022-07-29T16:25:26;13.20;82.60
47226;DHT22;32965;64.142;-21.912;2022-07-29T16:30:21;13.00;82.00
47226;DHT22;32965;64.142;-21.912;2022-07-29T16:38:14;13.00;83.50
47226;DHT22;32965;64.142;-21.912;2022-07-29T16:41:04;13.10;84.70
47226;DHT22;32965;64.142;-21.912;2022-07-29T16:43:42;13.10;83.00
47226;DHT22;32965;64.142;-21.912;2022-07-29T16:49:49;13.10;81.90
47226;DHT22;32965;64.142;-21.912;2022-07-29T16:52:19;13.00;84.70
47226;DHT22;32965;64.142;-21.912;2022-07-29T16:54:59;13.00;85.60
47226;DHT22;32965;64.142;-21.912;2022-07-29T17:09:32;13.10;85.10
47226;DHT22;32965;64.142;-21.912;2022-07-29T17:17:50;13.00;87.10
47226;DHT22;32965;64.142;-21.912;2022-07-29T17:23:03;13.00;87.90
47226;DHT22;32965;64.142;-21.912;2022-07-29T17:28:38;13.00;87.20
47226;DHT22;32965;64.142;-21.912;2022-07-29T17:33:48;13.00;87.20
47226;DHT22;32965;64.142;-21.912;2022-07-29T17:38:52;13.00;89.30
47226;DHT22;32965;64.142;-21.912;2022-07-29T17:43:54;13.00;88.10
47226;DHT22;32965;64.142;-21.912;2022-07-29T17:51:34;13.00;90.20
47226;DHT22;32965;64.142;-21.912;2022-07-29T17:54:08;13.00;90.20
47226;DHT22;32965;64.142;-21.912;2022-07-29T17:56:45;13.10;89.10
47226;DHT22;32965;64.142;-21.912;2022-07-29T17:59:12;13.10;89.30
47226;DHT22;32965;64.142;-21.912;2022-07-29T18:01:43;13.10;89.70
47226;DHT22;32965;64.142;-21.912;2022-07-29T18:04:29;13.00;87.10
47226;DHT22;32965;64.142;-21.912;2022-07-29T18:19:47;12.80;90.20
47226;DHT22;32965;64.142;-21.912;2022-07-29T18:25:26;12.80;88.20
47226;DHT22;32965;64.142;-21.912;2022-07-29T18:28:22;12.80;89.40
47226;DHT22;32965;64.142;-21.912;2022-07-29T18:34:27;12.70;88.60
47226;DHT22;32965;64.142;-21.912;2022-07-29T18:37:22;12.70;88.50
47226;DHT22;32965;64.142;-21.912;2022-07-29T18:42:18;12.70;90.00
47226;DHT22;32965;64.142;-21.912;2022-07-29T18:47:21;12.70;88.80
47226;DHT22;32965;64.142;-21.912;2022-07-29T18:50:14;12.70;88.30
47226;DHT22;32965;64.142;-21.912;2022-07-29T19:01:39;12.60;87.60
47226;DHT22;32965;64.142;-21.912;2022-07-29T19:04:55;12.60;87.50
47226;DHT22;32965;64.142;-21.912;2022-07-29T19:10:53;12.60;89.80
47226;DHT22;32965;64.142;-21.912;2022-07-29T19:16:12;12.50;89.50
47226;DHT22;32965;64.142;-21.912;2022-07-29T19:24:47;12.50;90.00
47226;DHT22;32965;64.142;-21.912;2022-07-29T19:33:09;12.40;89.60
47226;DHT22;32965;64.142;-21.912;2022-07-29T19:44:54;12.30;90.10
47226;DHT22;32965;64.142;-21.912;2022-07-29T19:53:28;12.30;90.30
47226;DHT22;32965;64.142;-21.912;2022-07-29T20:14:14;12.30;87.50
47226;DHT22;32965;64.142;-21.912;2022-07-29T20:33:52;11.90;90.20
47226;DHT22;32965;64.142;-21.912;2022-07-29T20:36:39;11.70;91.00
47226;DHT22;32965;64.142;-21.912;2022-07-29T20:39:30;11.70;91.40
47226;DHT22;32965;64.142;-21.912;2022-07-29T20:58:04;11.30;91.60
47226;DHT22;32965;64.142;-21.912;2022-07-29T21:03:27;11.20;91.70
47226;DHT22;32965;64.142;-21.912;2022-07-29T21:19:09;11.30;91.40
47226;DHT22;32965;64.142;-21.912;2022-07-29T21:21:38;11.20;91.40
47226;DHT22;32965;64.142;-21.912;2022-07-29T21:36:42;12.10;88.10
47226;DHT22;32965;64.142;-21.912;2022-07-29T21:39:31;12.40;86.30
47226;DHT22;32965;64.142;-21.912;2022-07-29T21:50:19;12.10;85.50
47226;DHT22;32965;64.142;-21.912;2022-07-29T21:52:52;12.30;84.10
47226;DHT22;32965;64.142;-21.912;2022-07-29T22:03:48;12.20;85.30
47226;DHT22;32965;64.142;-21.912;2022-07-29T22:06:55;12.00;86.00
47226;DHT22;32965;64.142;-21.912;2022-07-29T22:12:56;10.90;90.80
47226;DHT22;32965;64.142;-21.912;2022-07-29T22:15:45;11.10;90.20